sensor_id;sensor_type;location;lat;lon;timestamp;pressure;altitude;pressure_sealevel;temperature;humidity
63929;BME280;50105;46.522;6.626;2022-07-19T00:00:43;96310.97;;;22.75;46.68
63929;BME280;50105;46.522;6.626;2022-07-19T00:03:14;96316.25;;;22.75;46.77
63929;BME280;50105;46.522;6.626;2022-07-19T00:05:41;96314.59;;;22.74;46.60
63929;BME280;50105;46.522;6.626;2022-07-19T00:08:07;96315.41;;;22.74;46.78
63929;BME280;50105;46.522;6.626;2022-07-19T00:10:34;96318.06;;;22.74;46.84
63929;BME280;50105;46.522;6.626;2022-07-19T00:13:00;96312.91;;;22.73;46.89
63929;BME280;50105;46.522;6.626;2022-07-19T00:15:26;96313.75;;;22.73;46.32
63929;BME280;50105;46.522;6.626;2022-07-19T00:17:53;96313.75;;;22.73;46.65
63929;BME280;50105;46.522;6.626;2022-07-19T00:20:20;96319.03;;;22.73;46.65
63929;BME280;50105;46.522;6.626;2022-07-19T00:22:47;96322.66;;;22.72;46.65
63929;BME280;50105;46.522;6.626;2022-07-19T00:25:14;96320.94;;;22.71;46.92
63929;BME280;50105;46.522;6.626;2022-07-19T00:27:41;96327.94;;;22.72;46.72
63929;BME280;50105;46.522;6.626;2022-07-19T00:30:09;96328.75;;;22.73;46.77
63929;BME280;50105;46.522;6.626;2022-07-19T00:32:36;96322.66;;;22.72;46.46
63929;BME280;50105;46.522;6.626;2022-07-19T00:35:02;96322.66;;;22.72;46.89
63929;BME280;50105;46.522;6.626;2022-07-19T00:37:29;96320.94;;;22.71;46.71
63929;BME280;50105;46.522;6.626;2022-07-19T00:39:56;96330.69;;;22.71;46.49
63929;BME280;50105;46.522;6.626;2022-07-19T00:42:22;96329.84;;;22.70;46.72
63929;BME280;50105;46.522;6.626;2022-07-19T00:44:48;96326.22;;;22.71;46.41
63929;BME280;50105;46.522;6.626;2022-07-19T00:47:15;96326.22;;;22.71;46.78
63929;BME280;50105;46.522;6.626;2022-07-19T00:49:41;96324.56;;;22.70;46.74
63929;BME280;50105;46.522;6.626;2022-07-19T00:52:08;96327.22;;;22.70;46.36
63929;BME280;50105;46.522;6.626;2022-07-19T00:54:35;96329.84;;;22.70;46.65
63929;BME280;50105;46.522;6.626;2022-07-19T00:57:04;96327.22;;;22.70;46.51
63929;BME280;50105;46.522;6.626;2022-07-19T00:59:31;96320.25;;;22.69;46.82
63929;BME280;50105;46.522;6.626;2022-07-19T01:01:58;96325.53;;;22.69;46.74
63929;BME280;50105;46.522;6.626;2022-07-19T01:04:25;96322.91;;;22.69;46.42
63929;BME280;50105;46.522;6.626;2022-07-19T01:06:52;96322.91;;;22.69;46.73
63929;BME280;50105;46.522;6.626;2022-07-19T01:09:19;96323.88;;;22.68;46.82
63929;BME280;50105;46.522;6.626;2022-07-19T01:11:45;96326.38;;;22.70;46.38
63929;BME280;50105;46.522;6.626;2022-07-19T01:14:12;96317.63;;;22.69;46.79
63929;BME280;50105;46.522;6.626;2022-07-19T01:16:45;96315.94;;;22.68;46.85
63929;BME280;50105;46.522;6.626;2022-07-19T01:19:12;96317.75;;;22.68;46.76
63929;BME280;50105;46.522;6.626;2022-07-19T01:21:39;96317.88;;;22.66;46.95
63929;BME280;50105;46.522;6.626;2022-07-19T01:24:06;96321.22;;;22.68;46.50
63929;BME280;50105;46.522;6.626;2022-07-19T01:26:33;96331.78;;;22.68;46.79
63929;BME280;50105;46.522;6.626;2022-07-19T01:28:59;96330.09;;;22.67;46.74
63929;BME280;50105;46.522;6.626;2022-07-19T01:31:25;96324.81;;;22.67;46.75
63929;BME280;50105;46.522;6.626;2022-07-19T01:33:52;96328.31;;;22.68;46.79
63929;BME280;50105;46.522;6.626;2022-07-19T01:36:19;96323.16;;;22.66;46.80
63929;BME280;50105;46.522;6.626;2022-07-19T01:38:45;96328.44;;;22.66;46.46
63929;BME280;50105;46.522;6.626;2022-07-19T01:41:11;96323.16;;;22.66;46.51
63929;BME280;50105;46.522;6.626;2022-07-19T01:43:38;96328.44;;;22.66;46.59
63929;BME280;50105;46.522;6.626;2022-07-19T01:46:06;96328.44;;;22.66;46.39
63929;BME280;50105;46.522;6.626;2022-07-19T01:48:32;96338.03;;;22.67;46.52
63929;BME280;50105;46.522;6.626;2022-07-19T01:50:59;96341.63;;;22.66;46.69
63929;BME280;50105;46.522;6.626;2022-07-19T01:53:25;96339.84;;;22.67;46.95
63929;BME280;50105;46.522;6.626;2022-07-19T01:55:52;96345.25;;;22.65;46.80
63929;BME280;50105;46.522;6.626;2022-07-19T01:58:18;96339.97;;;22.65;46.79
63929;BME280;50105;46.522;6.626;2022-07-19T02:00:45;96340.94;;;22.64;46.73
63929;BME280;50105;46.522;6.626;2022-07-19T02:03:12;96341.75;;;22.65;46.56
63929;BME280;50105;46.522;6.626;2022-07-19T02:05:38;96345.38;;;22.64;46.60
63929;BME280;50105;46.522;6.626;2022-07-19T02:08:05;96346.22;;;22.64;46.89
63929;BME280;50105;46.522;6.626;2022-07-19T02:10:32;96346.22;;;22.64;46.82
63929;BME280;50105;46.522;6.626;2022-07-19T02:12:58;96348.88;;;22.64;46.61
63929;BME280;50105;46.522;6.626;2022-07-19T02:15:24;96347.22;;;22.63;46.60
63929;BME280;50105;46.522;6.626;2022-07-19T02:17:51;96344.56;;;22.63;46.84
63929;BME280;50105;46.522;6.626;2022-07-19T02:20:18;96347.22;;;22.63;46.82
63929;BME280;50105;46.522;6.626;2022-07-19T02:22:44;96344.56;;;22.63;46.56
63929;BME280;50105;46.522;6.626;2022-07-19T02:25:11;96339.28;;;22.63;46.82
63929;BME280;50105;46.522;6.626;2022-07-19T02:27:37;96341.91;;;22.63;46.90
63929;BME280;50105;46.522;6.626;2022-07-19T02:30:04;96344.56;;;22.63;47.00
63929;BME280;50105;46.522;6.626;2022-07-19T02:32:30;96342.88;;;22.62;46.67
63929;BME280;50105;46.522;6.626;2022-07-19T02:34:57;96342.88;;;22.62;46.96
63929;BME280;50105;46.522;6.626;2022-07-19T02:37:23;96342.03;;;22.62;46.63
63929;BME280;50105;46.522;6.626;2022-07-19T02:39:50;96335.91;;;22.61;46.65
63929;BME280;50105;46.522;6.626;2022-07-19T02:42:16;96341.19;;;22.61;46.86
63929;BME280;50105;46.522;6.626;2022-07-19T02:44:43;96337.59;;;22.62;46.85
63929;BME280;50105;46.522;6.626;2022-07-19T02:47:09;96335.06;;;22.60;46.77
63929;BME280;50105;46.522;6.626;2022-07-19T02:49:36;96343.84;;;22.61;46.49
63929;BME280;50105;46.522;6.626;2022-07-19T02:52:02;96335.06;;;22.60;46.53
63929;BME280;50105;46.522;6.626;2022-07-19T02:54:29;96336.88;;;22.60;46.86
63929;BME280;50105;46.522;6.626;2022-07-19T02:56:55;96345.63;;;22.60;46.86
63929;BME280;50105;46.522;6.626;2022-07-19T02:59:22;96350.09;;;22.60;46.64
63929;BME280;50105;46.522;6.626;2022-07-19T03:01:48;96341.31;;;22.59;46.83
63929;BME280;50105;46.522;6.626;2022-07-19T03:04:15;96343.16;;;22.59;46.78
63929;BME280;50105;46.522;6.626;2022-07-19T03:06:41;96340.50;;;22.59;46.85
63929;BME280;50105;46.522;6.626;2022-07-19T03:09:08;96347.56;;;22.58;46.96
63929;BME280;50105;46.522;6.626;2022-07-19T03:11:34;96349.25;;;22.59;46.79
63929;BME280;50105;46.522;6.626;2022-07-19T03:14:01;96346.72;;;22.58;46.92
63929;BME280;50105;46.522;6.626;2022-07-19T03:16:27;96346.72;;;22.58;46.77
63929;BME280;50105;46.522;6.626;2022-07-19T03:18:54;96347.56;;;22.58;46.64
63929;BME280;50105;46.522;6.626;2022-07-19T03:21:21;96351.06;;;22.59;46.87
63929;BME280;50105;46.522;6.626;2022-07-19T03:23:47;96341.44;;;22.58;46.87
63929;BME280;50105;46.522;6.626;2022-07-19T03:26:14;96346.72;;;22.58;47.08
63929;BME280;50105;46.522;6.626;2022-07-19T03:28:40;96355.63;;;22.57;46.95
63929;BME280;50105;46.522;6.626;2022-07-19T03:31:06;96355.63;;;22.57;47.00
63929;BME280;50105;46.522;6.626;2022-07-19T03:33:33;96352.00;;;22.58;46.77
63929;BME280;50105;46.522;6.626;2022-07-19T03:35:59;96354.78;;;22.56;46.66
63929;BME280;50105;46.522;6.626;2022-07-19T03:38:26;96363.56;;;22.57;46.81
63929;BME280;50105;46.522;6.626;2022-07-19T03:40:52;96369.81;;;22.56;46.95
63929;BME280;50105;46.522;6.626;2022-07-19T03:43:19;96367.84;;;22.58;47.25
63929;BME280;50105;46.522;6.626;2022-07-19T03:45:46;96360.91;;;22.57;46.86
63929;BME280;50105;46.522;6.626;2022-07-19T03:48:13;96368.94;;;22.55;46.98
63929;BME280;50105;46.522;6.626;2022-07-19T03:50:40;96369.81;;;22.56;46.71
63929;BME280;50105;46.522;6.626;2022-07-19T03:53:06;96364.75;;;22.53;47.04
63929;BME280;50105;46.522;6.626;2022-07-19T03:55:33;96374.25;;;22.55;47.13
63929;BME280;50105;46.522;6.626;2022-07-19T03:57:59;96369.81;;;22.56;46.80
63929;BME280;50105;46.522;6.626;2022-07-19T04:00:26;96383.00;;;22.56;47.00
63929;BME280;50105;46.522;6.626;2022-07-19T04:02:53;96374.31;;;22.54;46.71
63929;BME280;50105;46.522;6.626;2022-07-19T04:05:19;96382.03;;;22.57;46.81
63929;BME280;50105;46.522;6.626;2022-07-19T04:07:46;96380.47;;;22.54;46.75
63929;BME280;50105;46.522;6.626;2022-07-19T04:10:12;96374.44;;;22.52;46.98
63929;BME280;50105;46.522;6.626;2022-07-19T04:12:39;96382.25;;;22.54;47.22
63929;BME280;50105;46.522;6.626;2022-07-19T04:15:06;96377.72;;;22.56;46.91
63929;BME280;50105;46.522;6.626;2022-07-19T04:17:32;96376.97;;;22.54;46.87
63929;BME280;50105;46.522;6.626;2022-07-19T04:19:59;96377.94;;;22.53;46.91
63929;BME280;50105;46.522;6.626;2022-07-19T04:22:25;96379.72;;;22.52;46.84
63929;BME280;50105;46.522;6.626;2022-07-19T04:24:52;96381.44;;;22.53;46.97
63929;BME280;50105;46.522;6.626;2022-07-19T04:27:18;96384.19;;;22.52;47.19
63929;BME280;50105;46.522;6.626;2022-07-19T04:29:44;96389.47;;;22.52;47.03
63929;BME280;50105;46.522;6.626;2022-07-19T04:32:11;96389.47;;;22.52;46.93
63929;BME280;50105;46.522;6.626;2022-07-19T04:34:45;96387.81;;;22.51;47.16
63929;BME280;50105;46.522;6.626;2022-07-19T04:37:12;96393.09;;;22.51;47.02
63929;BME280;50105;46.522;6.626;2022-07-19T04:39:38;96394.03;;;22.50;46.70
63929;BME280;50105;46.522;6.626;2022-07-19T04:42:05;96391.41;;;22.50;46.95
63929;BME280;50105;46.522;6.626;2022-07-19T04:44:31;96396.69;;;22.50;46.95
63929;BME280;50105;46.522;6.626;2022-07-19T04:46:58;96392.25;;;22.50;46.93
63929;BME280;50105;46.522;6.626;2022-07-19T04:49:24;96399.31;;;22.50;46.97
63929;BME280;50105;46.522;6.626;2022-07-19T04:51:51;96398.38;;;22.51;46.99
63929;BME280;50105;46.522;6.626;2022-07-19T04:54:17;96403.66;;;22.51;47.06
63929;BME280;50105;46.522;6.626;2022-07-19T04:56:44;96397.53;;;22.50;47.11
63929;BME280;50105;46.522;6.626;2022-07-19T04:59:10;96403.66;;;22.51;46.97
63929;BME280;50105;46.522;6.626;2022-07-19T05:01:37;96401.97;;;22.50;47.15
63929;BME280;50105;46.522;6.626;2022-07-19T05:04:04;96403.66;;;22.51;46.87
63929;BME280;50105;46.522;6.626;2022-07-19T05:06:31;96407.25;;;22.50;47.07
63929;BME280;50105;46.522;6.626;2022-07-19T05:08:57;96407.25;;;22.50;47.07
63929;BME280;50105;46.522;6.626;2022-07-19T05:11:23;96419.50;;;22.51;46.91
63929;BME280;50105;46.522;6.626;2022-07-19T05:13:50;96403.78;;;22.49;46.96
63929;BME280;50105;46.522;6.626;2022-07-19T05:16:17;96407.25;;;22.50;46.93
63929;BME280;50105;46.522;6.626;2022-07-19T05:18:43;96408.09;;;22.50;47.11
63929;BME280;50105;46.522;6.626;2022-07-19T05:21:10;96404.59;;;22.50;47.23
63929;BME280;50105;46.522;6.626;2022-07-19T05:23:36;96415.88;;;22.52;47.52
63929;BME280;50105;46.522;6.626;2022-07-19T05:26:03;96408.09;;;22.50;47.22
63929;BME280;50105;46.522;6.626;2022-07-19T05:28:29;96405.56;;;22.48;47.37
63929;BME280;50105;46.522;6.626;2022-07-19T05:31:01;96414.22;;;22.51;47.44
63929;BME280;50105;46.522;6.626;2022-07-19T05:33:27;96401.00;;;22.51;47.41
63929;BME280;50105;46.522;6.626;2022-07-19T05:35:54;96415.88;;;22.52;47.66
63929;BME280;50105;46.522;6.626;2022-07-19T05:38:22;96413.94;;;22.54;47.51
63929;BME280;50105;46.522;6.626;2022-07-19T05:40:48;96414.78;;;22.54;47.58
63929;BME280;50105;46.522;6.626;2022-07-19T05:43:15;96416.50;;;22.55;47.42
63929;BME280;50105;46.522;6.626;2022-07-19T05:45:43;96410.38;;;22.55;47.68
63929;BME280;50105;46.522;6.626;2022-07-19T05:48:10;96416.50;;;22.55;47.71
63929;BME280;50105;46.522;6.626;2022-07-19T05:50:37;96415.16;;;22.61;48.40
63929;BME280;50105;46.522;6.626;2022-07-19T05:53:03;96418.53;;;22.63;48.50
63929;BME280;50105;46.522;6.626;2022-07-19T05:55:29;96414.91;;;22.64;48.91
63929;BME280;50105;46.522;6.626;2022-07-19T05:57:56;96420.19;;;22.64;49.16
63929;BME280;50105;46.522;6.626;2022-07-19T06:00:22;96414.06;;;22.64;49.08
63929;BME280;50105;46.522;6.626;2022-07-19T06:02:49;96412.97;;;22.66;49.39
63929;BME280;50105;46.522;6.626;2022-07-19T06:05:15;96418.25;;;22.66;49.38
63929;BME280;50105;46.522;6.626;2022-07-19T06:07:42;96426.91;;;22.68;49.75
63929;BME280;50105;46.522;6.626;2022-07-19T06:10:08;96427.84;;;22.67;49.47
63929;BME280;50105;46.522;6.626;2022-07-19T06:12:35;96426.03;;;22.68;49.69
63929;BME280;50105;46.522;6.626;2022-07-19T06:15:01;96430.09;;;22.72;50.20
63929;BME280;50105;46.522;6.626;2022-07-19T06:17:29;96418.31;;;22.76;50.40
63929;BME280;50105;46.522;6.626;2022-07-19T06:19:55;96424.44;;;22.77;50.51
63929;BME280;50105;46.522;6.626;2022-07-19T06:22:22;96428.75;;;22.78;50.45
63929;BME280;50105;46.522;6.626;2022-07-19T06:24:49;96429.47;;;22.80;50.62
63929;BME280;50105;46.522;6.626;2022-07-19T06:27:16;96426.56;;;22.83;50.60
63929;BME280;50105;46.522;6.626;2022-07-19T06:29:42;96425.59;;;22.84;50.49
63929;BME280;50105;46.522;6.626;2022-07-19T06:32:09;96420.19;;;22.85;50.87
63929;BME280;50105;46.522;6.626;2022-07-19T06:34:35;96427.00;;;22.88;50.92
63929;BME280;50105;46.522;6.626;2022-07-19T06:37:01;96433.72;;;22.92;50.92
63929;BME280;50105;46.522;6.626;2022-07-19T06:39:28;96433.47;;;22.95;51.00
63929;BME280;50105;46.522;6.626;2022-07-19T06:41:54;96431.53;;;22.97;51.00
63929;BME280;50105;46.522;6.626;2022-07-19T06:44:21;96419.28;;;22.96;51.10
63929;BME280;50105;46.522;6.626;2022-07-19T06:46:47;96419.88;;;23.00;51.00
63929;BME280;50105;46.522;6.626;2022-07-19T06:49:20;96425.16;;;23.00;50.89
63929;BME280;50105;46.522;6.626;2022-07-19T06:51:47;96423.47;;;22.99;51.04
63929;BME280;50105;46.522;6.626;2022-07-19T06:54:13;96424.31;;;22.99;50.85
63929;BME280;50105;46.522;6.626;2022-07-19T06:56:40;96425.00;;;23.02;51.02
63929;BME280;50105;46.522;6.626;2022-07-19T06:59:06;96422.13;;;23.05;51.20
63929;BME280;50105;46.522;6.626;2022-07-19T07:01:32;96426.31;;;23.07;51.26
63929;BME280;50105;46.522;6.626;2022-07-19T07:03:59;96419.91;;;23.10;51.05
63929;BME280;50105;46.522;6.626;2022-07-19T07:06:26;96428.81;;;23.09;50.78
63929;BME280;50105;46.522;6.626;2022-07-19T07:08:52;96421.88;;;23.08;51.01
63929;BME280;50105;46.522;6.626;2022-07-19T07:11:19;96414.91;;;23.07;51.08
63929;BME280;50105;46.522;6.626;2022-07-19T07:13:45;96414.06;;;23.06;51.06
63929;BME280;50105;46.522;6.626;2022-07-19T07:16:12;96416.69;;;23.06;51.18
63929;BME280;50105;46.522;6.626;2022-07-19T07:18:38;96412.41;;;23.05;51.08
63929;BME280;50105;46.522;6.626;2022-07-19T07:21:05;96415.59;;;23.09;50.94
63929;BME280;50105;46.522;6.626;2022-07-19T07:23:31;96410.75;;;23.14;51.00
63929;BME280;50105;46.522;6.626;2022-07-19T07:25:58;96407.41;;;23.12;51.03
63929;BME280;50105;46.522;6.626;2022-07-19T07:28:25;96412.72;;;23.12;50.68
63929;BME280;50105;46.522;6.626;2022-07-19T07:30:52;96414.50;;;23.11;50.91
63929;BME280;50105;46.522;6.626;2022-07-19T07:33:18;96411.47;;;23.16;50.84
63929;BME280;50105;46.522;6.626;2022-07-19T07:35:45;96410.25;;;23.20;50.57
63929;BME280;50105;46.522;6.626;2022-07-19T07:38:11;96415.53;;;23.20;49.95
63929;BME280;50105;46.522;6.626;2022-07-19T07:40:42;96412.91;;;23.20;50.37
63929;BME280;50105;46.522;6.626;2022-07-19T07:43:08;96413.59;;;23.22;50.02
63929;BME280;50105;46.522;6.626;2022-07-19T07:45:35;96411.66;;;23.24;50.06
63929;BME280;50105;46.522;6.626;2022-07-19T07:48:01;96422.94;;;23.26;49.87
63929;BME280;50105;46.522;6.626;2022-07-19T07:50:28;96416.41;;;23.31;49.51
63929;BME280;50105;46.522;6.626;2022-07-19T07:52:54;96410.00;;;23.33;49.50
63929;BME280;50105;46.522;6.626;2022-07-19T07:55:21;96406.81;;;23.30;49.58
63929;BME280;50105;46.522;6.626;2022-07-19T07:57:55;96403.47;;;23.28;49.43
63929;BME280;50105;46.522;6.626;2022-07-19T08:00:21;96396.50;;;23.26;49.63
63929;BME280;50105;46.522;6.626;2022-07-19T08:02:48;96398.88;;;23.30;49.36
63929;BME280;50105;46.522;6.626;2022-07-19T08:05:19;96392.25;;;23.35;49.22
63929;BME280;50105;46.522;6.626;2022-07-19T08:07:46;96392.81;;;23.39;48.71
63929;BME280;50105;46.522;6.626;2022-07-19T08:10:18;96390.91;;;23.41;49.08
63929;BME280;50105;46.522;6.626;2022-07-19T08:12:44;96387.28;;;23.42;48.94
63929;BME280;50105;46.522;6.626;2022-07-19T08:15:11;96383.91;;;23.40;49.25
63929;BME280;50105;46.522;6.626;2022-07-19T08:17:37;96386.72;;;23.38;48.95
63929;BME280;50105;46.522;6.626;2022-07-19T08:20:04;96387.09;;;23.34;48.90
63929;BME280;50105;46.522;6.626;2022-07-19T08:22:30;96384.69;;;23.31;49.28
63929;BME280;50105;46.522;6.626;2022-07-19T08:24:57;96383.00;;;23.30;49.05
63929;BME280;50105;46.522;6.626;2022-07-19T08:27:23;96379.69;;;23.28;49.46
63929;BME280;50105;46.522;6.626;2022-07-19T08:29:50;96375.34;;;23.26;49.36
63929;BME280;50105;46.522;6.626;2022-07-19T08:32:16;96381.59;;;23.25;49.62
63929;BME280;50105;46.522;6.626;2022-07-19T08:34:43;96374.66;;;23.24;49.52
63929;BME280;50105;46.522;6.626;2022-07-19T08:37:09;96370.34;;;23.23;49.72
63929;BME280;50105;46.522;6.626;2022-07-19T08:39:36;96379.09;;;23.24;49.63
63929;BME280;50105;46.522;6.626;2022-07-19T08:42:02;96376.56;;;23.22;49.73
63929;BME280;50105;46.522;6.626;2022-07-19T08:44:29;96373.94;;;23.22;49.60
63929;BME280;50105;46.522;6.626;2022-07-19T08:46:58;96379.22;;;23.22;49.72
63929;BME280;50105;46.522;6.626;2022-07-19T08:49:26;96371.28;;;23.22;49.54
63929;BME280;50105;46.522;6.626;2022-07-19T08:51:52;96372.97;;;23.23;49.71
63929;BME280;50105;46.522;6.626;2022-07-19T08:54:19;96371.28;;;23.22;49.74
63929;BME280;50105;46.522;6.626;2022-07-19T08:56:46;96366.84;;;23.23;49.31
63929;BME280;50105;46.522;6.626;2022-07-19T08:59:31;96375.63;;;23.23;49.71
63929;BME280;50105;46.522;6.626;2022-07-19T09:01:58;96378.28;;;23.23;49.79
63929;BME280;50105;46.522;6.626;2022-07-19T09:04:25;96368.63;;;23.22;49.73
63929;BME280;50105;46.522;6.626;2022-07-19T09:06:54;96378.28;;;23.23;49.44
63929;BME280;50105;46.522;6.626;2022-07-19T09:09:22;96366.84;;;23.23;49.80
63929;BME280;50105;46.522;6.626;2022-07-19T09:11:50;96367.69;;;23.23;49.52
63929;BME280;50105;46.522;6.626;2022-07-19T09:14:28;96376.31;;;23.25;49.98
63929;BME280;50105;46.522;6.626;2022-07-19T09:19:30;96368.38;;;23.25;49.69
63929;BME280;50105;46.522;6.626;2022-07-19T09:24:24;96365.75;;;23.25;49.70
63929;BME280;50105;46.522;6.626;2022-07-19T09:27:11;96362.13;;;23.26;49.71
63929;BME280;50105;46.522;6.626;2022-07-19T09:29:40;96363.81;;;23.28;49.35
63929;BME280;50105;46.522;6.626;2022-07-19T09:32:16;96358.53;;;23.28;49.84
63929;BME280;50105;46.522;6.626;2022-07-19T09:34:49;96358.53;;;23.28;49.67
63929;BME280;50105;46.522;6.626;2022-07-19T09:37:17;96359.34;;;23.28;49.67
63929;BME280;50105;46.522;6.626;2022-07-19T09:39:44;96362.84;;;23.29;49.41
63929;BME280;50105;46.522;6.626;2022-07-19T09:42:12;96356.56;;;23.30;49.45
63929;BME280;50105;46.522;6.626;2022-07-19T09:44:39;96360.19;;;23.29;49.52
63929;BME280;50105;46.522;6.626;2022-07-19T09:47:06;96354.91;;;23.29;49.70
63929;BME280;50105;46.522;6.626;2022-07-19T09:49:37;96356.56;;;23.30;49.15
63929;BME280;50105;46.522;6.626;2022-07-19T09:52:04;96358.25;;;23.31;49.72
63929;BME280;50105;46.522;6.626;2022-07-19T09:54:30;96343.34;;;23.30;49.44
63929;BME280;50105;46.522;6.626;2022-07-19T09:56:58;96341.56;;;23.30;49.28
63929;BME280;50105;46.522;6.626;2022-07-19T09:59:25;96342.38;;;23.31;49.30
63929;BME280;50105;46.522;6.626;2022-07-19T10:01:53;96343.22;;;23.31;49.24
63929;BME280;50105;46.522;6.626;2022-07-19T10:04:21;96347.66;;;23.31;49.53
63929;BME280;50105;46.522;6.626;2022-07-19T10:06:48;96344.03;;;23.32;49.46
63929;BME280;50105;46.522;6.626;2022-07-19T10:09:16;96336.09;;;23.32;49.05
63929;BME280;50105;46.522;6.626;2022-07-19T10:11:43;96335.16;;;23.33;49.42
63929;BME280;50105;46.522;6.626;2022-07-19T10:14:10;96326.28;;;23.34;49.12
63929;BME280;50105;46.522;6.626;2022-07-19T10:17:02;96328.94;;;23.34;49.40
63929;BME280;50105;46.522;6.626;2022-07-19T10:21:57;96325.31;;;23.35;49.26
63929;BME280;50105;46.522;6.626;2022-07-19T10:27:09;96324.31;;;23.36;49.32
63929;BME280;50105;46.522;6.626;2022-07-19T10:29:36;96325.16;;;23.36;49.34
63929;BME280;50105;46.522;6.626;2022-07-19T10:32:09;96320.72;;;23.37;49.02
63929;BME280;50105;46.522;6.626;2022-07-19T10:34:36;96310.16;;;23.37;49.05
63929;BME280;50105;46.522;6.626;2022-07-19T10:37:03;96310.16;;;23.37;49.16
63929;BME280;50105;46.522;6.626;2022-07-19T10:39:31;96311.81;;;23.38;49.19
63929;BME280;50105;46.522;6.626;2022-07-19T10:50:07;96294.00;;;23.40;48.68
63929;BME280;50105;46.522;6.626;2022-07-19T10:52:34;96297.34;;;23.42;48.81
63929;BME280;50105;46.522;6.626;2022-07-19T10:57:51;96290.28;;;23.43;48.47
63929;BME280;50105;46.522;6.626;2022-07-19T11:00:30;96292.06;;;23.42;48.87
63929;BME280;50105;46.522;6.626;2022-07-19T11:05:47;96282.19;;;23.44;48.40
63929;BME280;50105;46.522;6.626;2022-07-19T11:08:14;96282.91;;;23.46;48.33
63929;BME280;50105;46.522;6.626;2022-07-19T11:10:40;96283.72;;;23.47;48.48
63929;BME280;50105;46.522;6.626;2022-07-19T11:13:07;96272.31;;;23.46;48.10
63929;BME280;50105;46.522;6.626;2022-07-19T11:15:33;96268.69;;;23.47;48.16
63929;BME280;50105;46.522;6.626;2022-07-19T11:18:06;96266.91;;;23.48;48.34
63929;BME280;50105;46.522;6.626;2022-07-19T11:20:33;96263.41;;;23.47;48.02
63929;BME280;50105;46.522;6.626;2022-07-19T11:23:01;96263.13;;;23.50;48.44
63929;BME280;50105;46.522;6.626;2022-07-19T11:27:54;96259.50;;;23.51;48.19
63929;BME280;50105;46.522;6.626;2022-07-19T11:30:21;96253.09;;;23.54;48.14
63929;BME280;50105;46.522;6.626;2022-07-19T11:32:56;96247.00;;;23.54;48.03
63929;BME280;50105;46.522;6.626;2022-07-19T11:35:23;96250.34;;;23.56;48.09
63929;BME280;50105;46.522;6.626;2022-07-19T11:37:51;96239.63;;;23.57;47.91
63929;BME280;50105;46.522;6.626;2022-07-19T11:40:20;96241.41;;;23.57;47.91
63929;BME280;50105;46.522;6.626;2022-07-19T11:42:47;96234.47;;;23.56;47.90
63929;BME280;50105;46.522;6.626;2022-07-19T11:45:40;96234.47;;;23.56;47.54
63929;BME280;50105;46.522;6.626;2022-07-19T11:48:08;96229.16;;;23.56;47.87
63929;BME280;50105;46.522;6.626;2022-07-19T11:50:34;96226.53;;;23.56;47.87
63929;BME280;50105;46.522;6.626;2022-07-19T11:53:01;96227.50;;;23.55;47.84
63929;BME280;50105;46.522;6.626;2022-07-19T11:55:28;96228.50;;;23.54;47.77
63929;BME280;50105;46.522;6.626;2022-07-19T11:57:56;96226.53;;;23.56;47.89
63929;BME280;50105;46.522;6.626;2022-07-19T12:00:22;96214.97;;;23.57;47.87
63929;BME280;50105;46.522;6.626;2022-07-19T12:02:53;96214.69;;;23.60;47.86
63929;BME280;50105;46.522;6.626;2022-07-19T12:05:21;96212.06;;;23.60;47.73
63929;BME280;50105;46.522;6.626;2022-07-19T12:07:48;96213.84;;;23.59;47.64
63929;BME280;50105;46.522;6.626;2022-07-19T12:10:34;96207.75;;;23.59;47.88
63929;BME280;50105;46.522;6.626;2022-07-19T12:13:01;96211.06;;;23.61;47.84
63929;BME280;50105;46.522;6.626;2022-07-19T12:18:14;96198.56;;;23.63;47.59
63929;BME280;50105;46.522;6.626;2022-07-19T12:20:43;96193.13;;;23.64;47.62
63929;BME280;50105;46.522;6.626;2022-07-19T12:23:17;96189.38;;;23.67;47.34
63929;BME280;50105;46.522;6.626;2022-07-19T12:25:45;96183.22;;;23.67;47.40
63929;BME280;50105;46.522;6.626;2022-07-19T12:28:11;96184.06;;;23.67;47.48
63929;BME280;50105;46.522;6.626;2022-07-19T12:30:38;96184.06;;;23.67;47.73
63929;BME280;50105;46.522;6.626;2022-07-19T12:33:05;96180.44;;;23.68;47.22
63929;BME280;50105;46.522;6.626;2022-07-19T12:35:45;96181.28;;;23.69;47.66
63929;BME280;50105;46.522;6.626;2022-07-19T12:43:06;96169.59;;;23.71;47.29
63929;BME280;50105;46.522;6.626;2022-07-19T12:45:51;96164.31;;;23.71;47.27
63929;BME280;50105;46.522;6.626;2022-07-19T12:48:19;96173.91;;;23.72;47.28
63929;BME280;50105;46.522;6.626;2022-07-19T12:50:57;96162.34;;;23.73;47.33
63929;BME280;50105;46.522;6.626;2022-07-19T12:53:51;96158.72;;;23.74;47.14
63929;BME280;50105;46.522;6.626;2022-07-19T12:56:30;96154.25;;;23.75;47.26
63929;BME280;50105;46.522;6.626;2022-07-19T12:59:37;96147.03;;;23.77;46.76
63929;BME280;50105;46.522;6.626;2022-07-19T13:02:22;96152.16;;;23.78;47.14
63929;BME280;50105;46.522;6.626;2022-07-19T13:04:50;96145.91;;;23.80;47.11
63929;BME280;50105;46.522;6.626;2022-07-19T13:07:33;96151.88;;;23.82;47.13
63929;BME280;50105;46.522;6.626;2022-07-19T13:09:59;96137.66;;;23.83;47.14
63929;BME280;50105;46.522;6.626;2022-07-19T13:12:26;96140.31;;;23.83;47.31
63929;BME280;50105;46.522;6.626;2022-07-19T13:14:52;96141.84;;;23.85;47.11
63929;BME280;50105;46.522;6.626;2022-07-19T13:17:19;96133.09;;;23.85;46.90
63929;BME280;50105;46.522;6.626;2022-07-19T13:19:45;96132.38;;;23.83;46.84
63929;BME280;50105;46.522;6.626;2022-07-19T13:22:12;96126.13;;;23.84;47.26
63929;BME280;50105;46.522;6.626;2022-07-19T13:24:39;96128.63;;;23.85;47.27
63929;BME280;50105;46.522;6.626;2022-07-19T13:27:26;96128.47;;;23.87;46.96
63929;BME280;50105;46.522;6.626;2022-07-19T13:29:52;96130.31;;;23.86;46.96
63929;BME280;50105;46.522;6.626;2022-07-19T13:32:19;96123.19;;;23.87;47.24
63929;BME280;50105;46.522;6.626;2022-07-19T13:34:45;96126.53;;;23.89;47.32
63929;BME280;50105;46.522;6.626;2022-07-19T13:37:12;96125.56;;;23.90;47.10